JOE121 LGAV-LGIR
Flight info
| Callsign | JOE121 |
|---|---|
| Flight time | 0h 35m |
| Altitude | 25000 |
| Route | KEA UL607 GIVIS T514 XAVIS |
| Aircraft | A20N/M-SDE2E3FGHIRWXY/LB1 |
Departure
| Time | 2026-05-06 07:55 |
|---|---|
| Airport | Athens Eleftherios Venizelos International Airport (LGAV) |
Arrival
| Time | 2026-05-06 08:30 |
|---|---|
| Airport | Heraklion International Nikos Kazantzakis Airport (LGIR) |
| Time | Latitude | Longitude | Altitude | Speed | Heading |
|---|---|---|---|---|---|
| 2026-05-06 07:21 | 37.93054 | 23.94284 | 290 ft | 0 kts | 39° |
| 2026-05-06 07:44 | 37.93052 | 23.94281 | 288 ft | 1 kts | 39° |
| 2026-05-06 07:44 | 37.93046 | 23.94275 | 290 ft | 1 kts | 39° |
| 2026-05-06 07:45 | 37.93039 | 23.94268 | 293 ft | 2 kts | 39° |
| 2026-05-06 07:45 | 37.93028 | 23.94257 | 290 ft | 1 kts | 45° |
| 2026-05-06 07:45 | 37.93020 | 23.94243 | 289 ft | 2 kts | 72° |
| 2026-05-06 07:45 | 37.93016 | 23.94222 | 289 ft | 3 kts | 77° |
| 2026-05-06 07:46 | 37.93012 | 23.94202 | 287 ft | 1 kts | 78° |
| 2026-05-06 07:46 | 37.93010 | 23.94192 | 291 ft | 3 kts | 93° |
| 2026-05-06 07:46 | 37.93013 | 23.94173 | 287 ft | 1 kts | 111° |
| 2026-05-06 07:46 | 37.93013 | 23.94174 | 287 ft | 0 kts | 111° |
| 2026-05-06 07:51 | 37.93012 | 23.94176 | 287 ft | 1 kts | 111° |
| 2026-05-06 07:51 | 37.92996 | 23.94211 | 289 ft | 9 kts | 125° |
| 2026-05-06 07:51 | 37.92941 | 23.94279 | 288 ft | 13 kts | 142° |
| 2026-05-06 07:51 | 37.92891 | 23.94340 | 292 ft | 10 kts | 131° |
| 2026-05-06 07:52 | 37.92841 | 23.94422 | 292 ft | 14 kts | 125° |
| 2026-05-06 07:52 | 37.92762 | 23.94434 | 291 ft | 13 kts | 218° |
| 2026-05-06 07:52 | 37.92680 | 23.94358 | 292 ft | 16 kts | 215° |
| 2026-05-06 07:52 | 37.92589 | 23.94271 | 293 ft | 14 kts | 218° |
| 2026-05-06 07:53 | 37.92521 | 23.94202 | 297 ft | 14 kts | 218° |
| 2026-05-06 07:53 | 37.92423 | 23.94168 | 296 ft | 12 kts | 158° |
| 2026-05-06 07:53 | 37.92392 | 23.94246 | 294 ft | 10 kts | 84° |
| 2026-05-06 07:53 | 37.92414 | 23.94370 | 294 ft | 11 kts | 66° |
| 2026-05-06 07:54 | 37.92449 | 23.94422 | 294 ft | 8 kts | 39° |
| 2026-05-06 07:54 | 37.92625 | 23.94581 | 294 ft | 66 kts | 40° |
| 2026-05-06 07:54 | 37.93175 | 23.95104 | 287 ft | 128 kts | 37° |
| 2026-05-06 07:54 | 37.94016 | 23.95902 | 336 ft | 168 kts | 37° |
| 2026-05-06 07:55 | 37.94923 | 23.96781 | 976 ft | 162 kts | 38° |
| 2026-05-06 07:55 | 37.95818 | 23.97662 | 1570 ft | 165 kts | 39° |
| 2026-05-06 07:55 | 37.96726 | 23.98557 | 2167 ft | 169 kts | 38° |
| 2026-05-06 07:55 | 37.97688 | 23.99502 | 2717 ft | 180 kts | 36° |
| 2026-05-06 07:56 | 37.98727 | 24.00485 | 3091 ft | 197 kts | 35° |
| 2026-05-06 07:56 | 37.99880 | 24.01569 | 3408 ft | 218 kts | 35° |
| 2026-05-06 07:56 | 38.01159 | 24.02784 | 3775 ft | 241 kts | 36° |
| 2026-05-06 07:56 | 38.02394 | 24.04339 | 4216 ft | 263 kts | 58° |
| 2026-05-06 07:57 | 38.02944 | 24.06588 | 4985 ft | 274 kts | 88° |
| 2026-05-06 07:57 | 38.02584 | 24.08966 | 5971 ft | 280 kts | 115° |
| 2026-05-06 07:57 | 38.01396 | 24.10917 | 6955 ft | 284 kts | 142° |
| 2026-05-06 07:57 | 37.99634 | 24.12068 | 7871 ft | 289 kts | 163° |
| 2026-05-06 07:58 | 37.97689 | 24.12795 | 8781 ft | 294 kts | 164° |
| 2026-05-06 07:58 | 37.95729 | 24.13611 | 9726 ft | 299 kts | 160° |
| 2026-05-06 07:58 | 37.93782 | 24.14628 | 10501 ft | 310 kts | 156° |
| 2026-05-06 07:58 | 37.91764 | 24.15854 | 10857 ft | 334 kts | 153° |
| 2026-05-06 07:59 | 37.89639 | 24.17254 | 11240 ft | 353 kts | 152° |
| 2026-05-06 07:59 | 37.87452 | 24.18739 | 12018 ft | 359 kts | 152° |
| 2026-05-06 07:59 | 37.85237 | 24.20248 | 12834 ft | 364 kts | 152° |
| 2026-05-06 07:59 | 37.82986 | 24.21777 | 13641 ft | 370 kts | 152° |
| 2026-05-06 08:00 | 37.80698 | 24.23324 | 14361 ft | 375 kts | 152° |
| 2026-05-06 08:00 | 37.78373 | 24.24891 | 15019 ft | 382 kts | 152° |
| 2026-05-06 08:00 | 37.76007 | 24.26483 | 15682 ft | 388 kts | 153° |
| 2026-05-06 08:00 | 37.73606 | 24.28097 | 16343 ft | 394 kts | 153° |
| 2026-05-06 08:01 | 37.71167 | 24.29734 | 16998 ft | 400 kts | 153° |
| 2026-05-06 08:01 | 37.68689 | 24.31396 | 17643 ft | 406 kts | 153° |
| 2026-05-06 08:01 | 37.66179 | 24.33079 | 18275 ft | 412 kts | 153° |
| 2026-05-06 08:01 | 37.63637 | 24.34782 | 18892 ft | 416 kts | 153° |
| 2026-05-06 08:02 | 37.61066 | 24.36503 | 19537 ft | 419 kts | 153° |
| 2026-05-06 08:02 | 37.58473 | 24.38237 | 20106 ft | 424 kts | 153° |
| 2026-05-06 08:02 | 37.55854 | 24.39986 | 20643 ft | 430 kts | 153° |
| 2026-05-06 08:02 | 37.53199 | 24.41758 | 21236 ft | 433 kts | 153° |
| 2026-05-06 08:03 | 37.50523 | 24.43542 | 21811 ft | 437 kts | 154° |
| 2026-05-06 08:03 | 37.47828 | 24.45336 | 22399 ft | 441 kts | 154° |
| 2026-05-06 08:03 | 37.45165 | 24.47107 | 22951 ft | 445 kts | 154° |
| 2026-05-06 08:03 | 37.42422 | 24.48931 | 23504 ft | 449 kts | 154° |
| 2026-05-06 08:04 | 37.39638 | 24.50779 | 24002 ft | 453 kts | 154° |
| 2026-05-06 08:04 | 37.36787 | 24.52483 | 24443 ft | 454 kts | 161° |
| 2026-05-06 08:04 | 37.33823 | 24.53914 | 24870 ft | 459 kts | 161° |
| 2026-05-06 08:04 | 37.30813 | 24.55370 | 25054 ft | 470 kts | 161° |
| 2026-05-06 08:05 | 37.27909 | 24.56751 | 25097 ft | 483 kts | 161° |
| 2026-05-06 08:05 | 37.24716 | 24.58246 | 25097 ft | 497 kts | 162° |
| 2026-05-06 08:05 | 37.21431 | 24.59767 | 25097 ft | 509 kts | 162° |
| 2026-05-06 08:05 | 37.18069 | 24.61317 | 25097 ft | 521 kts | 162° |
| 2026-05-06 08:06 | 37.14627 | 24.62899 | 25101 ft | 530 kts | 162° |
| 2026-05-06 08:06 | 37.11148 | 24.64498 | 25102 ft | 536 kts | 162° |
| 2026-05-06 08:06 | 37.07692 | 24.66087 | 25101 ft | 516 kts | 162° |
| 2026-05-06 08:06 | 37.04399 | 24.67603 | 25102 ft | 493 kts | 162° |
| 2026-05-06 08:07 | 37.01275 | 24.69039 | 25069 ft | 464 kts | 162° |
| 2026-05-06 08:07 | 36.98301 | 24.70404 | 24650 ft | 448 kts | 162° |
| 2026-05-06 08:07 | 36.95352 | 24.71749 | 24138 ft | 460 kts | 163° |
| 2026-05-06 08:07 | 36.92334 | 24.73121 | 24364 ft | 460 kts | 162° |
| 2026-05-06 08:08 | 36.89331 | 24.74491 | 24914 ft | 461 kts | 162° |
| 2026-05-06 08:08 | 36.86274 | 24.75884 | 24992 ft | 475 kts | 162° |
| 2026-05-06 08:08 | 36.83121 | 24.77319 | 24975 ft | 490 kts | 162° |
| 2026-05-06 08:08 | 36.79879 | 24.78794 | 24953 ft | 503 kts | 162° |
| 2026-05-06 08:09 | 36.76591 | 24.80291 | 24901 ft | 505 kts | 162° |
| 2026-05-06 08:09 | 36.73246 | 24.81812 | 24869 ft | 515 kts | 162° |
| 2026-05-06 08:09 | 36.69941 | 24.83318 | 24712 ft | 496 kts | 162° |
| 2026-05-06 08:09 | 36.66773 | 24.84761 | 24460 ft | 473 kts | 162° |
| 2026-05-06 08:10 | 36.63762 | 24.86132 | 24204 ft | 450 kts | 162° |
| 2026-05-06 08:10 | 36.60858 | 24.87449 | 23556 ft | 440 kts | 163° |
| 2026-05-06 08:10 | 36.58001 | 24.88739 | 22640 ft | 434 kts | 163° |
| 2026-05-06 08:10 | 36.55180 | 24.90011 | 21880 ft | 427 kts | 162° |
| 2026-05-06 08:11 | 36.52454 | 24.91242 | 21612 ft | 406 kts | 162° |
| 2026-05-06 08:11 | 36.49864 | 24.92414 | 21405 ft | 387 kts | 162° |
| 2026-05-06 08:11 | 36.47399 | 24.93528 | 21219 ft | 368 kts | 163° |
| 2026-05-06 08:11 | 36.45020 | 24.94600 | 20878 ft | 365 kts | 163° |
| 2026-05-06 08:12 | 36.42525 | 24.95714 | 20694 ft | 392 kts | 162° |
| 2026-05-06 08:12 | 36.39985 | 24.96852 | 20600 ft | 382 kts | 162° |
| 2026-05-06 08:12 | 36.37523 | 24.97960 | 20450 ft | 371 kts | 162° |
| 2026-05-06 08:12 | 36.35118 | 24.99043 | 20085 ft | 367 kts | 162° |
| 2026-05-06 08:13 | 36.32722 | 25.00119 | 19659 ft | 365 kts | 162° |
| 2026-05-06 08:13 | 36.30343 | 25.01186 | 19254 ft | 363 kts | 162° |
| 2026-05-06 08:13 | 36.27976 | 25.02247 | 18837 ft | 361 kts | 162° |
| 2026-05-06 08:13 | 36.25621 | 25.03302 | 18449 ft | 359 kts | 161° |
| 2026-05-06 08:14 | 36.23278 | 25.04353 | 18014 ft | 356 kts | 161° |
| 2026-05-06 08:14 | 36.20956 | 25.05395 | 17580 ft | 354 kts | 161° |
| 2026-05-06 08:14 | 36.18651 | 25.06428 | 17153 ft | 351 kts | 161° |
| 2026-05-06 08:14 | 36.16360 | 25.07453 | 16743 ft | 349 kts | 161° |
| 2026-05-06 08:15 | 36.14086 | 25.08469 | 16313 ft | 347 kts | 161° |
| 2026-05-06 08:15 | 36.11826 | 25.09480 | 15904 ft | 344 kts | 161° |
| 2026-05-06 08:15 | 36.09732 | 25.10414 | 15537 ft | 342 kts | 161° |
| 2026-05-06 08:15 | 36.07505 | 25.11408 | 15142 ft | 340 kts | 161° |
| 2026-05-06 08:16 | 36.05282 | 25.12400 | 14755 ft | 338 kts | 161° |
| 2026-05-06 08:16 | 36.03075 | 25.13383 | 14369 ft | 336 kts | 161° |
| 2026-05-06 08:16 | 36.00886 | 25.14358 | 13988 ft | 334 kts | 161° |
| 2026-05-06 08:16 | 35.98708 | 25.15327 | 13585 ft | 331 kts | 161° |
| 2026-05-06 08:17 | 35.96552 | 25.16286 | 13197 ft | 328 kts | 161° |
| 2026-05-06 08:17 | 35.94439 | 25.17226 | 12802 ft | 326 kts | 161° |
| 2026-05-06 08:17 | 35.92318 | 25.18169 | 12418 ft | 323 kts | 161° |
| 2026-05-06 08:17 | 35.90211 | 25.19105 | 12033 ft | 320 kts | 161° |
| 2026-05-06 08:18 | 35.88127 | 25.20030 | 11644 ft | 317 kts | 161° |
| 2026-05-06 08:18 | 35.86061 | 25.20946 | 11280 ft | 315 kts | 161° |
| 2026-05-06 08:18 | 35.83976 | 25.21871 | 10900 ft | 312 kts | 161° |
| 2026-05-06 08:18 | 35.81966 | 25.22762 | 10545 ft | 310 kts | 161° |
| 2026-05-06 08:19 | 35.79946 | 25.23657 | 10195 ft | 307 kts | 161° |
| 2026-05-06 08:19 | 35.77947 | 25.24542 | 9823 ft | 305 kts | 160° |
| 2026-05-06 08:19 | 35.75958 | 25.25422 | 9432 ft | 302 kts | 160° |
| 2026-05-06 08:19 | 35.73990 | 25.26292 | 9043 ft | 300 kts | 160° |
| 2026-05-06 08:20 | 35.72035 | 25.27158 | 8664 ft | 297 kts | 160° |
| 2026-05-06 08:20 | 35.70099 | 25.28014 | 8274 ft | 295 kts | 160° |
| 2026-05-06 08:20 | 35.68174 | 25.28865 | 7904 ft | 293 kts | 160° |
| 2026-05-06 08:20 | 35.66267 | 25.29706 | 7533 ft | 291 kts | 159° |
| 2026-05-06 08:21 | 35.64370 | 25.30542 | 7167 ft | 289 kts | 159° |
| 2026-05-06 08:21 | 35.62488 | 25.31371 | 6821 ft | 286 kts | 159° |
| 2026-05-06 08:21 | 35.61224 | 25.31927 | 6584 ft | 285 kts | 159° |
| 2026-05-06 08:21 | 35.59367 | 25.32745 | 6209 ft | 283 kts | 159° |
| 2026-05-06 08:22 | 35.56918 | 25.33827 | 5648 ft | 283 kts | 160° |
| 2026-05-06 08:22 | 35.55690 | 25.34369 | 5403 ft | 281 kts | 160° |
| 2026-05-06 08:22 | 35.53235 | 25.35451 | 4932 ft | 279 kts | 160° |
| 2026-05-06 08:22 | 35.52040 | 25.35978 | 4841 ft | 271 kts | 161° |
| 2026-05-06 08:23 | 35.50300 | 25.36744 | 4731 ft | 260 kts | 161° |
| 2026-05-06 08:23 | 35.48635 | 25.37475 | 4620 ft | 249 kts | 161° |
| 2026-05-06 08:23 | 35.47019 | 25.38184 | 4404 ft | 245 kts | 161° |
| 2026-05-06 08:23 | 35.45419 | 25.38886 | 4139 ft | 243 kts | 160° |
| 2026-05-06 08:24 | 35.43911 | 25.39786 | 3865 ft | 240 kts | 150° |
| 2026-05-06 08:24 | 35.42491 | 25.40776 | 3741 ft | 229 kts | 150° |
| 2026-05-06 08:24 | 35.41141 | 25.41710 | 3635 ft | 218 kts | 151° |
| 2026-05-06 08:24 | 35.39854 | 25.42597 | 3540 ft | 208 kts | 151° |
| 2026-05-06 08:25 | 35.38605 | 25.43455 | 3312 ft | 205 kts | 151° |
| 2026-05-06 08:25 | 35.37298 | 25.44095 | 3044 ft | 201 kts | 178° |
| 2026-05-06 08:25 | 35.35980 | 25.43715 | 2989 ft | 200 kts | 217° |
| 2026-05-06 08:25 | 35.35116 | 25.42459 | 2984 ft | 193 kts | 246° |
| 2026-05-06 08:26 | 35.34569 | 25.40959 | 2978 ft | 192 kts | 250° |
| 2026-05-06 08:26 | 35.34059 | 25.39453 | 2931 ft | 190 kts | 250° |
| 2026-05-06 08:26 | 35.33542 | 25.37971 | 2828 ft | 186 kts | 249° |
| 2026-05-06 08:26 | 35.33040 | 25.36587 | 2773 ft | 174 kts | 249° |
| 2026-05-06 08:27 | 35.32776 | 25.35164 | 2472 ft | 170 kts | 271° |
| 2026-05-06 08:27 | 35.32881 | 25.33739 | 2319 ft | 172 kts | 277° |
| 2026-05-06 08:27 | 35.33000 | 25.32285 | 2273 ft | 166 kts | 277° |
| 2026-05-06 08:27 | 35.33095 | 25.30967 | 2264 ft | 147 kts | 276° |
| 2026-05-06 08:28 | 35.33170 | 25.29739 | 2024 ft | 143 kts | 276° |
| 2026-05-06 08:28 | 35.33244 | 25.28559 | 1920 ft | 132 kts | 276° |
| 2026-05-06 08:28 | 35.33318 | 25.27480 | 1790 ft | 123 kts | 277° |
| 2026-05-06 08:28 | 35.33380 | 25.26412 | 1538 ft | 138 kts | 275° |
| 2026-05-06 08:29 | 35.33455 | 25.25182 | 1398 ft | 147 kts | 277° |
| 2026-05-06 08:29 | 35.33565 | 25.23917 | 1240 ft | 150 kts | 277° |
| 2026-05-06 08:29 | 35.33641 | 25.22621 | 1008 ft | 155 kts | 276° |
| 2026-05-06 08:29 | 35.33742 | 25.21348 | 728 ft | 148 kts | 279° |
| 2026-05-06 08:30 | 35.33827 | 25.20106 | 399 ft | 144 kts | 277° |
| 2026-05-06 08:30 | 35.33918 | 25.18907 | 164 ft | 139 kts | 276° |
| 2026-05-06 08:30 | 35.33991 | 25.17792 | 98 ft | 117 kts | 276° |
| 2026-05-06 08:30 | 35.34036 | 25.17175 | 83 ft | 29 kts | 274° |
| 2026-05-06 08:31 | 35.34044 | 25.17005 | 70 ft | 24 kts | 272° |
| 2026-05-06 08:31 | 35.34038 | 25.16868 | 67 ft | 9 kts | 239° |
| 2026-05-06 08:31 | 35.33982 | 25.16831 | 63 ft | 9 kts | 178° |
| 2026-05-06 08:31 | 35.33931 | 25.16888 | 70 ft | 0 kts | 115° |
| 2026-05-06 08:32 | 35.33932 | 25.16886 | 70 ft | 0 kts | 115° |
| 2026-05-06 08:32 | 35.33932 | 25.16885 | 70 ft | 0 kts | 115° |
| 2026-05-06 08:32 | 35.33932 | 25.16884 | 72 ft | 0 kts | 115° |